Time;durP1;ratioP1;P1;durP2;ratioP2;P2;SDS_P1;SDS_P2;PMS_P1;PMS_P2;Temp;Humidity;BMP_temperature;BMP_pressure;BME280_temperature;BME280_humidity;BME280_pressure;Samples;Min_cycle;Max_cycle;Signal;HPM_P1;HPM_P2
2022/07/15 00:02:00;;;;;;;1.23;0.70;;;15.50;99.90;;;-141.84;51.30;20202.03;5032587;28;20241;-59
2022/07/15 00:04:28;;;;;;;1.93;0.80;;;15.40;99.90;;;-141.84;51.51;20202.03;5032021;28;20229;-54
2022/07/15 00:06:57;;;;;;;2.13;1.10;;;15.40;99.90;;;-141.84;51.69;20220.34;5031878;28;20252;-57
2022/07/15 00:12:09;;;;;;;2.75;1.02;;;15.40;99.90;;;-141.84;51.30;20228.47;5031532;28;20309;-58
2022/07/15 00:14:37;;;;;;;0.73;0.73;;;15.40;99.90;;;-141.84;51.92;20214.22;5031959;28;20222;-56
2022/07/15 00:17:07;;;;;;;1.17;0.80;;;15.40;99.90;;;-141.84;51.80;20195.94;5032442;28;20297;-57
2022/07/15 00:19:36;;;;;;;2.00;0.80;;;15.40;99.90;;;-141.84;52.04;20183.75;5031641;28;20234;-59
2022/07/15 00:22:04;;;;;;;1.90;1.00;;;15.30;99.90;;;-141.84;52.06;20214.22;5032113;28;20232;-56
2022/07/15 00:24:32;;;;;;;2.13;1.00;;;15.30;99.90;;;-141.84;52.49;20179.69;5031879;28;20309;-56
2022/07/15 00:27:02;;;;;;;1.17;0.80;;;15.30;99.90;;;-141.84;51.85;20204.06;5031869;28;20305;-58
2022/07/15 00:29:32;;;;;;;1.30;0.73;;;15.30;99.90;;;-141.84;52.52;20159.34;5031757;28;20232;-57
2022/07/15 00:32:00;;;;;;;3.37;1.10;;;15.30;99.90;;;-141.84;52.50;20165.44;5032455;28;20634;-57
2022/07/15 00:34:29;;;;;;;2.50;1.00;;;15.30;99.90;;;-141.84;52.69;20197.97;5031543;28;20306;-56
2022/07/15 00:36:57;;;;;;;1.40;1.02;;;15.20;99.90;;;-141.84;52.70;20181.72;5031583;28;20236;-55
2022/07/15 00:39:25;;;;;;;1.23;0.82;;;15.30;99.90;;;-141.84;52.60;20153.25;5031026;28;20764;-54
2022/07/15 00:41:53;;;;;;;2.33;0.90;;;15.20;99.90;;;-141.84;52.37;20171.56;5031244;28;20600;-55
2022/07/15 00:44:21;;;;;;;3.13;1.10;;;15.20;99.90;;;-141.84;52.21;20171.56;5031515;28;20202;-56
2022/07/15 00:46:53;;;;;;;2.13;1.00;;;15.30;99.90;;;-141.84;53.59;20169.53;5032352;28;20208;-54
2022/07/15 00:49:22;;;;;;;1.70;0.93;;;15.20;99.90;;;-141.84;53.32;20185.78;5031320;28;20634;-57
2022/07/15 00:51:52;;;;;;;1.60;0.90;;;15.20;99.90;;;-141.84;53.62;20165.44;5031008;28;20222;-57
2022/07/15 00:54:26;;;;;;;1.10;1.00;;;15.10;99.90;;;-141.84;53.34;20169.53;5031388;28;20253;-56
2022/07/15 00:56:57;;;;;;;2.90;1.20;;;15.10;99.90;;;-141.84;53.84;20155.28;5031081;28;20713;-57
2022/07/15 00:59:32;;;;;;;1.83;1.20;;;15.10;99.90;;;-141.84;53.97;20130.91;5031408;28;20203;-56
2022/07/15 01:02:03;;;;;;;2.87;0.97;;;15.10;99.90;;;-141.84;54.34;20157.31;5031725;28;20190;-58
2022/07/15 01:04:33;;;;;;;2.20;1.00;;;15.00;99.90;;;-141.84;54.20;20120.75;5031080;28;20305;-57
2022/07/15 01:07:01;;;;;;;1.87;1.10;;;15.10;99.90;;;-141.84;54.91;20098.38;5031058;28;20312;-61
2022/07/15 01:09:29;;;;;;;2.30;1.20;;;15.00;99.90;;;-141.84;54.09;20147.16;5031219;28;20226;-62
2022/07/15 01:11:58;;;;;;;2.03;1.20;;;15.00;99.90;;;-141.84;55.59;20114.63;5030117;28;20305;-63
2022/07/15 01:14:26;;;;;;;1.50;1.27;;;14.90;99.90;;;-141.84;55.09;20112.59;5030783;28;20205;-61
2022/07/15 01:16:54;;;;;;;2.33;1.30;;;14.90;99.90;;;-141.84;56.11;20102.44;5031576;28;20210;-62
2022/07/15 01:19:24;;;;;;;2.07;1.10;;;14.80;99.90;;;-141.84;55.84;20061.78;5030683;28;20291;-61
2022/07/15 01:21:53;;;;;;;1.50;1.10;;;14.80;99.90;;;-141.84;56.19;20045.53;5030868;28;20229;-62
2022/07/15 01:24:21;;;;;;;1.63;0.90;;;14.70;99.90;;;-141.84;56.64;20057.72;5030883;28;20312;-62
2022/07/15 01:26:50;;;;;;;3.33;1.17;;;14.60;99.90;;;-141.84;56.29;20067.88;5030444;28;20616;-63
2022/07/15 01:29:18;;;;;;;1.07;0.97;;;14.50;99.90;;;-141.84;56.79;20051.63;5031611;28;20212;-62
2022/07/15 01:31:46;;;;;;;2.67;1.10;;;14.50;99.90;;;-141.84;56.77;20051.63;5030867;28;20226;-62
2022/07/15 01:34:15;;;;;;;3.17;1.13;;;14.50;99.90;;;-141.84;56.88;20047.56;5030504;28;20225;-62
2022/07/15 01:36:43;;;;;;;3.30;1.40;;;14.50;99.90;;;-141.84;57.53;20000.81;5030204;28;20637;-61
2022/07/15 01:39:13;;;;;;;1.10;0.90;;;14.40;99.90;;;-141.84;57.24;20021.16;5030793;28;20232;-62
2022/07/15 01:42:01;;;;;;;2.47;0.97;;;14.40;99.90;;;-141.84;57.46;20041.47;5030184;28;20222;-62
2022/07/15 01:44:29;;;;;;;2.43;1.10;;;14.40;99.90;;;-141.84;57.56;20021.16;5030681;28;20198;-62
2022/07/15 01:46:57;;;;;;;1.50;1.00;;;14.40;99.90;;;-141.84;57.83;20039.44;5030982;28;20321;-61
2022/07/15 01:49:31;;;;;;;2.43;1.20;;;14.40;99.90;;;-141.84;57.43;20027.25;5030632;28;20237;-62
2022/07/15 01:52:02;;;;;;;3.03;1.20;;;14.40;99.90;;;-141.84;57.13;20098.38;5010808;28;20225;-62
2022/07/15 01:54:33;;;;;;;2.50;1.20;;;14.50;99.90;;;-141.84;57.57;20076.03;5018216;28;20304;-61
2022/07/15 01:57:01;;;;;;;2.13;1.30;;;14.50;99.90;;;-141.84;57.33;20049.59;5030517;28;20333;-61
2022/07/15 01:59:30;;;;;;;1.57;1.07;;;14.50;99.90;;;-141.84;57.25;20031.31;5030340;28;20236;-61
2022/07/15 02:01:59;;;;;;;3.13;1.50;;;14.50;99.90;;;-141.84;58.04;20010.97;5031006;28;20198;-62
2022/07/15 02:04:28;;;;;;;2.30;1.40;;;14.40;99.90;;;-141.84;58.40;20043.50;5030579;28;20248;-62
2022/07/15 02:06:56;;;;;;;2.77;1.47;;;14.40;99.90;;;-141.84;58.49;20021.16;5030056;28;20383;-62
2022/07/15 02:09:24;;;;;;;2.03;1.40;;;14.40;99.90;;;-141.84;58.21;20027.25;5030439;28;20312;-61
2022/07/15 02:11:54;;;;;;;2.47;1.33;;;14.40;99.90;;;-141.84;58.18;20019.13;5030260;28;20308;-62
2022/07/15 02:14:22;;;;;;;3.00;1.83;;;14.40;99.90;;;-141.84;58.61;19996.75;5030397;28;20642;-61
2022/07/15 02:16:50;;;;;;;3.20;1.40;;;14.30;99.90;;;-141.84;58.26;20017.09;5030839;28;20289;-62
2022/07/15 02:19:18;;;;;;;1.30;1.10;;;14.40;99.90;;;-141.84;59.16;20004.88;5030186;28;20225;-61
2022/07/15 02:21:47;;;;;;;2.50;1.40;;;14.40;99.90;;;-141.84;59.46;19992.69;5030019;28;20313;-62
2022/07/15 02:24:19;;;;;;;4.13;1.93;;;14.30;99.90;;;-141.84;59.62;20013.00;5033738;28;20245;-62
2022/07/15 02:26:48;;;;;;;5.50;1.60;;;14.30;99.90;;;-141.84;59.16;20057.72;5033897;28;20236;-61
2022/07/15 02:29:18;;;;;;;3.00;1.70;;;14.30;99.90;;;-141.84;59.52;19994.72;5034731;28;20241;-60
2022/07/15 02:31:46;;;;;;;2.40;1.37;;;14.40;99.90;;;-141.84;60.23;19994.72;5033887;28;20576;-62
2022/07/15 02:34:14;;;;;;;2.20;1.53;;;14.30;99.90;;;-141.84;60.56;19988.63;5033944;28;20249;-62
2022/07/15 02:36:43;;;;;;;2.47;1.50;;;14.30;99.90;;;-141.84;60.96;19976.44;5033794;28;20230;-61
2022/07/15 02:39:11;;;;;;;2.10;1.70;;;14.30;99.90;;;-141.84;61.10;19978.47;5033939;28;20375;-61
2022/07/15 02:41:39;;;;;;;3.33;1.67;;;14.20;99.90;;;-141.84;61.53;19978.47;5033712;28;20293;-62
2022/07/15 02:44:07;;;;;;;3.13;1.70;;;14.20;99.90;;;-141.84;60.87;19996.75;5034588;28;20306;-61
2022/07/15 02:46:37;;;;;;;2.03;1.60;;;14.20;99.90;;;-141.84;61.40;19984.56;5033517;28;20226;-62
2022/07/15 02:49:05;;;;;;;3.80;1.67;;;14.20;99.90;;;-141.84;61.35;19970.34;5034007;28;20234;-61
2022/07/15 02:51:33;;;;;;;2.90;1.67;;;14.20;99.90;;;-141.84;62.20;19941.88;5033454;28;20308;-61
2022/07/15 02:54:01;;;;;;;2.30;1.63;;;14.10;99.90;;;-141.84;62.89;19964.25;5033819;28;20225;-61
2022/07/15 02:56:29;;;;;;;2.70;1.63;;;14.10;99.90;;;-141.84;62.91;19952.03;5033459;28;20286;-62
2022/07/15 02:58:57;;;;;;;4.53;1.60;;;14.00;99.90;;;-141.84;63.49;19923.59;5034518;28;20225;-62
2022/07/15 03:01:26;;;;;;;2.53;1.47;;;14.00;99.90;;;-141.84;64.03;19911.41;5033443;28;20309;-61
2022/07/15 03:03:56;;;;;;;3.13;1.97;;;13.90;99.90;;;-141.84;64.32;19907.31;5033449;28;20705;-61
2022/07/15 03:06:24;;;;;;;5.10;2.30;;;13.80;99.90;;;-141.84;64.46;19895.13;5033073;28;20316;-61
2022/07/15 03:08:52;;;;;;;3.87;1.70;;;13.80;99.90;;;-141.84;64.81;19905.28;5033329;28;20313;-62
2022/07/15 03:11:20;;;;;;;4.83;1.63;;;13.80;99.90;;;-141.84;65.16;19868.72;5033364;28;20212;-62
2022/07/15 03:13:49;;;;;;;2.60;1.73;;;13.80;99.90;;;-141.84;64.38;19903.25;5033530;28;20244;-61
2022/07/15 03:16:17;;;;;;;3.97;1.80;;;13.80;99.90;;;-141.84;65.20;19895.13;5033182;28;20785;-61
2022/07/15 03:18:45;;;;;;;4.23;1.90;;;13.80;99.90;;;-141.84;65.56;19903.25;5033134;28;20230;-62
2022/07/15 03:21:15;;;;;;;2.77;2.10;;;13.80;99.90;;;-141.84;66.14;19887.00;5032702;28;20226;-62
2022/07/15 03:23:44;;;;;;;4.33;1.90;;;13.70;99.90;;;-141.84;64.80;19901.22;5033230;28;20229;-61
2022/07/15 03:26:12;;;;;;;1.90;1.47;;;13.70;99.90;;;-141.84;65.63;19872.78;5033517;28;20305;-63
2022/07/15 03:28:40;;;;;;;2.80;1.90;;;13.70;99.90;;;-141.84;65.96;19864.66;5032542;28;20253;-62
2022/07/15 03:31:08;;;;;;;2.93;1.60;;;13.70;99.90;;;-141.84;65.88;19842.28;5032880;28;20313;-62
2022/07/15 03:33:37;;;;;;;2.23;1.77;;;13.70;99.90;;;-141.84;66.80;19846.34;5032721;28;20226;-61
2022/07/15 03:36:06;;;;;;;4.50;2.00;;;13.70;99.90;;;-141.84;66.76;19864.66;5031945;28;20595;-62
2022/07/15 03:38:36;;;;;;;4.40;2.00;;;13.70;99.90;;;-141.84;67.03;19850.41;5032685;28;20241;-61
2022/07/15 03:41:04;;;;;;;3.67;1.83;;;13.70;99.90;;;-141.84;67.20;19834.16;5033249;28;20238;-62
2022/07/15 03:43:32;;;;;;;3.33;1.90;;;13.60;99.90;;;-141.84;66.65;19872.78;5032264;28;20225;-61
2022/07/15 03:46:00;;;;;;;2.73;1.80;;;13.70;99.90;;;-141.84;66.22;19889.03;5032513;28;20741;-61
2022/07/15 03:48:28;;;;;;;3.87;2.17;;;13.70;99.90;;;-141.84;66.87;19868.72;5032318;28;20641;-61
2022/07/15 03:50:56;;;;;;;4.67;1.97;;;13.70;99.90;;;-141.84;66.58;19862.63;5032159;28;20804;-63
2022/07/15 03:53:25;;;;;;;3.60;2.10;;;13.70;99.90;;;-141.84;66.28;19907.31;5032849;28;20285;-62
2022/07/15 03:55:54;;;;;;;5.07;1.73;;;13.70;99.90;;;-141.84;65.67;19947.97;5032761;28;20705;-62
2022/07/15 03:58:23;;;;;;;4.93;2.23;;;13.80;99.90;;;-141.84;65.63;19901.22;5032232;28;20245;-63
2022/07/15 04:00:51;;;;;;;2.80;1.70;;;13.90;99.90;;;-141.84;66.22;19866.69;5032457;28;20230;-62
2022/07/15 04:03:19;;;;;;;5.87;2.17;;;13.80;99.90;;;-141.84;66.21;19884.97;5032414;28;20655;-62
2022/07/15 04:05:47;;;;;;;2.47;2.00;;;13.90;99.90;;;-141.84;66.22;19895.13;5032201;28;20323;-62
2022/07/15 04:08:15;;;;;;;4.40;2.23;;;13.90;99.90;;;-141.84;65.80;19915.47;5032594;28;20226;-61
2022/07/15 04:10:43;;;;;;;6.07;2.23;;;13.90;99.90;;;-141.84;66.01;19893.09;5031861;28;20308;-63
2022/07/15 04:13:13;;;;;;;6.30;2.40;;;13.90;99.90;;;-141.84;65.19;19893.09;5032053;28;20226;-62
2022/07/15 04:15:41;;;;;;;4.97;1.90;;;14.00;99.90;;;-141.84;64.55;19941.88;5031920;28;20225;-61
2022/07/15 04:18:10;;;;;;;6.67;2.00;;;14.00;99.90;;;-141.84;64.38;19954.06;5032048;28;20313;-61
2022/07/15 04:20:38;;;;;;;3.90;2.10;;;14.10;99.90;;;-141.84;62.83;20000.81;5031645;28;20225;-62
2022/07/15 04:23:07;;;;;;;3.73;1.77;;;14.40;99.90;;;-141.84;61.96;20053.66;5032470;28;20213;-62
2022/07/15 04:25:35;;;;;;;3.37;2.20;;;14.50;99.90;;;-141.84;61.14;20086.19;5031385;28;20679;-62
2022/07/15 04:28:03;;;;;;;3.93;2.00;;;14.80;99.90;;;-141.84;60.49;20124.81;5031809;28;20657;-61
2022/07/15 04:30:33;;;;;;;4.03;2.10;;;14.90;99.90;;;-141.84;60.82;20078.06;5031747;28;20317;-61
2022/07/15 04:33:02;;;;;;;5.47;2.17;;;14.90;99.90;;;-141.84;60.17;20134.97;5031342;28;20313;-61
2022/07/15 04:35:30;;;;;;;3.47;1.80;;;15.00;99.90;;;-141.84;60.06;20114.63;5031273;28;20209;-62
2022/07/15 04:37:58;;;;;;;2.75;1.90;;;15.10;99.90;;;-141.84;60.70;20094.31;5032003;28;20293;-62
2022/07/15 04:40:27;;;;;;;4.77;2.10;;;15.20;99.90;;;-141.84;60.59;20139.03;5031375;28;20309;-62
2022/07/15 04:42:57;;;;;;;9.77;4.47;;;15.10;99.90;;;-141.84;60.63;20126.84;5031231;28;20248;-60
2022/07/15 04:45:25;;;;;;;5.97;3.20;;;15.20;99.90;;;-141.84;61.21;20090.25;5031388;28;20308;-61
2022/07/15 04:47:55;;;;;;;2.97;1.80;;;15.20;99.90;;;-141.84;60.82;20086.19;5031415;28;20258;-62
2022/07/15 04:53:15;;;;;;;5.30;2.00;;;15.20;99.90;;;-141.84;61.19;20078.06;5026017;28;20289;-62
2022/07/15 04:55:43;;;;;;;7.80;4.13;;;15.20;99.90;;;-141.84;60.06;20147.16;5030974;28;20329;-60
2022/07/15 04:58:14;;;;;;;5.50;3.00;;;15.20;99.90;;;-141.84;60.18;20132.94;5031186;28;20678;-62
2022/07/15 05:00:43;;;;;;;4.77;2.20;;;15.30;99.90;;;-141.84;60.54;20165.44;5031153;28;20233;-62
2022/07/15 05:03:14;;;;;;;3.45;2.28;;;15.30;99.90;;;-141.84;60.47;20130.91;5031252;28;20799;-62
2022/07/15 05:05:43;;;;;;;3.05;2.10;;;15.40;99.90;;;-141.84;60.21;20130.91;5031177;28;20226;-61
2022/07/15 05:08:11;;;;;;;3.93;2.40;;;15.40;99.90;;;-141.84;60.95;20122.78;5031281;28;20228;-62
2022/07/15 05:10:40;;;;;;;7.60;2.58;;;15.40;99.90;;;-141.84;60.47;20134.97;5030756;28;20453;-62
2022/07/15 05:13:08;;;;;;;6.10;2.13;;;15.40;99.90;;;-141.84;60.59;20175.63;5030455;28;20591;-62
2022/07/15 05:15:36;;;;;;;4.87;2.33;;;15.40;99.90;;;-141.84;59.88;20161.38;5031034;28;20609;-62
2022/07/15 05:18:04;;;;;;;3.53;2.00;;;15.50;99.90;;;-141.84;59.79;20175.63;5030906;28;20672;-62
2022/07/15 05:20:34;;;;;;;3.90;1.80;;;15.50;99.90;;;-141.84;59.62;20193.91;5030207;28;20220;-62
2022/07/15 05:23:03;;;;;;;4.90;1.92;;;15.50;99.90;;;-141.84;59.51;20197.97;5031318;28;20511;-62
2022/07/15 05:25:31;;;;;;;3.40;2.00;;;15.70;99.90;;;-141.84;59.41;20208.13;5030571;28;20225;-61
2022/07/15 05:27:59;;;;;;;5.57;2.13;;;15.70;99.90;;;-141.84;59.31;20195.94;5030616;28;20316;-62
2022/07/15 05:30:27;;;;;;;2.78;1.73;;;15.80;99.90;;;-141.84;59.08;20234.56;5030927;28;20608;-62
2022/07/15 05:32:55;;;;;;;2.72;1.80;;;15.80;99.90;;;-141.84;58.55;20224.41;5030827;28;20250;-62
2022/07/15 05:35:23;;;;;;;3.45;1.88;;;15.90;99.90;;;-141.84;59.18;20185.78;5030189;28;20739;-62
2022/07/15 05:37:53;;;;;;;9.33;2.33;;;16.00;99.90;;;-141.84;58.28;20263.00;5030908;28;20204;-62
2022/07/15 05:40:21;;;;;;;7.38;1.98;;;16.00;99.90;;;-141.84;57.50;20277.25;5030360;28;20229;-62
2022/07/15 05:42:50;;;;;;;2.95;2.20;;;16.10;99.90;;;-141.84;57.60;20256.91;5030446;28;20317;-63
2022/07/15 05:45:18;;;;;;;4.68;2.50;;;16.10;99.90;;;-141.84;58.04;20246.75;5030248;28;20769;-63
2022/07/15 05:47:50;;;;;;;3.92;2.28;;;16.20;99.90;;;-141.84;57.62;20285.38;5030635;28;20230;-61
2022/07/15 05:50:19;;;;;;;3.33;2.20;;;16.20;99.90;;;-141.84;56.79;20303.66;5030703;28;20202;-61
2022/07/15 05:52:47;;;;;;;4.05;2.40;;;16.30;99.90;;;-141.84;57.20;20317.91;5030882;28;20217;-62
2022/07/15 05:55:17;;;;;;;5.72;2.40;;;16.50;99.90;;;-141.84;55.88;20350.41;5030293;28;20313;-61
2022/07/15 05:57:45;;;;;;;6.28;1.88;;;16.60;99.90;;;-141.84;54.38;20421.56;5031356;28;20248;-62
2022/07/15 06:00:15;;;;;;;5.60;1.80;;;16.80;99.90;;;-141.84;54.60;20443.91;5034669;28;20227;-62
2022/07/15 06:02:43;;;;;;;6.18;1.95;;;16.90;99.90;;;-141.84;54.43;20397.16;5034723;28;20275;-62
2022/07/15 06:05:12;;;;;;;6.78;1.70;;;17.00;99.90;;;-141.84;54.09;20439.84;5034596;28;20205;-63
2022/07/15 06:07:41;;;;;;;5.38;1.80;;;17.10;99.90;;;-141.84;53.04;20462.22;5034249;28;20253;-62
2022/07/15 06:10:10;;;;;;;4.50;1.98;;;17.30;99.90;;;-141.84;52.30;20531.31;5034026;28;20238;-63
2022/07/15 06:12:40;;;;;;;3.63;1.48;;;17.40;99.90;;;-141.84;52.31;20571.97;5034127;28;20717;-62
2022/07/15 06:15:09;;;;;;;3.38;1.50;;;17.50;99.90;;;-141.84;51.00;20596.38;5034050;28;20236;-61
2022/07/15 06:17:38;;;;;;;5.18;1.90;;;17.70;99.90;;;-141.84;51.10;20649.22;5034265;28;20244;-64
2022/07/15 06:20:08;;;;;;;6.30;1.90;;;18.10;99.90;;;-141.84;48.21;20756.97;5034252;28;20252;-62
2022/07/15 06:22:39;;;;;;;4.20;1.55;;;18.50;99.90;;;-141.84;48.29;20785.44;5033947;28;20226;-62
2022/07/15 06:25:09;;;;;;;4.88;1.52;;;18.90;99.90;;;-141.84;46.48;20878.94;5033777;28;20324;-63
2022/07/15 06:27:37;;;;;;;3.22;1.40;;;19.20;99.90;;;-141.84;46.70;20870.81;5033732;28;20230;-61
2022/07/15 06:30:09;;;;;;;3.10;1.60;;;19.40;99.90;;;-141.84;45.80;20919.59;5034094;28;20305;-61
2022/07/15 06:32:38;;;;;;;7.00;1.63;;;19.60;99.90;;;-141.84;45.20;20909.44;5034239;28;20622;-63
2022/07/15 06:35:07;;;;;;;4.28;1.70;;;19.70;99.90;;;-141.84;45.65;20856.56;5034403;28;20206;-61
2022/07/15 06:37:35;;;;;;;5.57;1.73;;;19.40;99.90;;;-141.84;46.17;20846.41;5034033;28;20230;-62
2022/07/15 06:40:05;;;;;;;4.20;1.50;;;19.40;99.90;;;-141.84;46.21;20830.16;5033628;28;20732;-61
2022/07/15 06:42:33;;;;;;;6.82;1.85;;;19.30;99.90;;;-141.84;46.29;20789.50;5033347;28;20272;-61
2022/07/15 06:45:01;;;;;;;4.90;1.88;;;19.20;99.90;;;-141.84;47.43;20728.50;5033783;28;20305;-63
2022/07/15 06:47:31;;;;;;;4.70;1.77;;;19.10;99.90;;;-141.84;46.52;20756.97;5033739;28;20201;-62
2022/07/15 06:50:01;;;;;;;4.07;1.20;;;19.00;99.90;;;-141.84;46.81;20732.56;5034002;28;20198;-63
2022/07/15 06:52:29;;;;;;;4.60;1.42;;;19.00;99.90;;;-141.84;46.57;20785.44;5033583;28;20222;-62
2022/07/15 06:54:57;;;;;;;4.07;1.50;;;19.10;99.90;;;-141.84;45.64;20815.91;5033338;28;20305;-62
2022/07/15 06:57:25;;;;;;;3.78;1.40;;;19.20;99.90;;;-141.84;45.58;20799.66;5033259;28;20690;-63
2022/07/15 06:59:53;;;;;;;5.50;1.35;;;19.30;99.90;;;-141.84;43.85;20887.06;5033389;28;20308;-63
2022/07/15 07:02:22;;;;;;;4.63;1.35;;;19.40;99.90;;;-141.84;43.68;20915.53;5033672;28;20206;-63
2022/07/15 07:04:51;;;;;;;4.05;1.20;;;19.60;99.90;;;-141.84;43.20;20939.94;5033461;28;20749;-62
2022/07/15 07:07:20;;;;;;;2.10;0.98;;;19.80;99.90;;;-141.84;42.11;21021.25;5033183;28;20222;-62
2022/07/15 07:09:48;;;;;;;2.65;1.33;;;20.00;99.90;;;-141.84;41.38;21033.44;5031656;28;20226;-62
2022/07/15 07:12:16;;;;;;;5.50;1.63;;;20.20;99.90;;;-141.84;41.86;21108.66;5032682;28;20225;-62
2022/07/15 07:14:44;;;;;;;4.75;1.48;;;20.40;99.90;;;-141.84;41.77;20994.81;5032893;28;20710;-63
2022/07/15 07:17:12;;;;;;;3.63;1.42;;;20.20;99.90;;;-141.84;41.55;21015.16;5033667;28;20293;-63
2022/07/15 07:19:40;;;;;;;3.13;1.20;;;20.10;99.90;;;-141.84;41.39;20964.31;5032821;28;20245;-62
2022/07/15 07:22:10;;;;;;;3.08;1.08;;;19.90;99.90;;;-141.84;42.06;20948.06;5032942;28;20236;-61
2022/07/15 07:24:38;;;;;;;8.52;1.80;;;19.80;99.90;;;-141.84;41.65;21029.38;5033006;28;20256;-61
2022/07/15 07:27:06;;;;;;;5.65;1.25;;;19.80;99.90;;;-141.84;41.08;21057.84;5032672;28;20252;-62
2022/07/15 07:29:34;;;;;;;4.53;1.40;;;19.90;99.90;;;-141.84;41.16;21039.53;5033171;28;20261;-62
2022/07/15 07:32:03;;;;;;;2.70;1.50;;;19.80;99.90;;;-141.84;42.05;21009.03;5033377;28;20233;-62
2022/07/15 07:34:32;;;;;;;6.22;1.42;;;19.80;99.90;;;-141.84;41.79;20992.78;5032685;28;20503;-62
2022/07/15 07:37:00;;;;;;;4.25;1.40;;;19.90;99.90;;;-141.84;41.01;20996.84;5032247;28;20313;-62
2022/07/15 07:39:29;;;;;;;6.05;1.05;;;19.80;99.90;;;-141.84;41.39;20988.72;5033041;28;20503;-62
2022/07/15 07:41:57;;;;;;;4.28;1.23;;;19.90;99.90;;;-141.84;41.15;20974.50;5032588;28;20309;-61
2022/07/15 07:44:26;;;;;;;3.28;1.38;;;20.00;99.90;;;-141.84;40.63;21009.03;5032944;28;20293;-62
2022/07/15 07:46:54;;;;;;;2.92;0.90;;;20.10;99.90;;;-141.84;38.75;21009.03;5032862;28;20773;-62
2022/07/15 07:49:22;;;;;;;3.75;0.90;;;19.90;99.90;;;-141.84;39.71;20984.66;5032482;28;20230;-62
2022/07/15 07:52:04;;;;;;;1.88;1.02;;;19.90;99.90;;;-141.84;37.81;21061.91;5012417;28;20305;-62
2022/07/15 07:54:34;;;;;;;1.10;0.80;;;20.20;99.90;;;-141.84;36.80;21072.06;5020268;28;20222;-62
2022/07/15 07:57:03;;;;;;;1.73;0.73;;;20.10;99.90;;;-141.84;36.83;21124.94;5031858;28;20666;-61
2022/07/15 07:59:31;;;;;;;2.08;0.88;;;20.30;99.90;;;-141.84;36.22;21131.03;5032314;28;20572;-61
2022/07/15 08:01:59;;;;;;;2.45;0.80;;;20.20;99.90;;;-141.84;35.73;21096.47;5032479;28;20198;-62
2022/07/15 08:04:28;;;;;;;2.70;0.70;;;20.30;99.90;;;-141.84;36.32;21122.91;5032271;28;20237;-62
2022/07/15 08:06:57;;;;;;;2.15;0.65;;;20.30;99.90;;;-141.84;35.89;21131.03;5031911;28;20225;-62
2022/07/15 08:09:25;;;;;;;1.65;0.70;;;20.30;99.90;;;-141.84;35.09;21167.63;5031771;28;20723;-62
2022/07/15 08:11:54;;;;;;;3.42;0.80;;;20.40;99.90;;;-141.84;35.23;21244.88;5032065;28;20218;-61
2022/07/15 08:14:24;;;;;;;2.70;0.73;;;20.60;99.90;;;-141.84;34.02;21326.22;5031656;28;20202;-62
2022/07/15 08:16:52;;;;;;;2.13;0.80;;;20.90;99.90;;;-141.84;33.05;21358.75;5032473;28;20630;-61
2022/07/15 08:19:21;;;;;;;1.98;0.80;;;21.10;99.90;;;-141.84;33.84;21334.34;5032309;28;20226;-63
2022/07/15 08:21:50;;;;;;;2.85;0.80;;;21.30;99.90;;;-141.84;33.70;21316.03;5031272;28;20226;-61
2022/07/15 08:24:19;;;;;;;1.75;0.70;;;21.20;99.90;;;-141.84;33.44;21326.22;5031762;28;20725;-62
2022/07/15 08:26:47;;;;;;;3.85;0.80;;;21.00;99.90;;;-141.84;33.86;21273.34;5031701;28;20309;-63
2022/07/15 08:29:16;;;;;;;2.40;0.90;;;20.90;99.90;;;-141.84;34.12;21303.84;5032459;28;20222;-61
2022/07/15 08:31:46;;;;;;;2.45;0.80;;;21.00;99.90;;;-141.84;33.90;21348.56;5031615;28;20300;-62
2022/07/15 08:34:14;;;;;;;3.28;0.77;;;21.00;99.90;;;-141.84;34.48;21301.81;5031777;28;20305;-62
2022/07/15 08:36:42;;;;;;;2.33;0.80;;;21.00;99.90;;;-141.84;34.87;21279.44;5031602;28;20229;-62
2022/07/15 08:39:11;;;;;;;2.05;1.10;;;21.00;99.90;;;-141.84;33.77;21328.25;5031657;28;20450;-62
2022/07/15 08:41:40;;;;;;;2.60;0.80;;;21.10;99.90;;;-141.84;33.43;21320.09;5031112;28;20682;-63
2022/07/15 08:44:08;;;;;;;3.83;0.60;;;21.10;99.90;;;-141.84;33.26;21342.47;5032086;28;20256;-62
2022/07/15 08:46:45;;;;;;;1.17;0.85;;;21.20;99.90;;;-141.84;33.21;21360.78;5031227;28;20732;-63
2022/07/15 08:49:17;;;;;;;2.38;0.80;;;21.30;99.90;;;-141.84;32.45;21436.00;5031720;28;20287;-62
2022/07/15 08:51:47;;;;;;;3.55;1.00;;;21.30;99.90;;;-141.84;32.70;21486.81;5030788;28;20229;-62
2022/07/15 08:54:16;;;;;;;1.45;0.70;;;21.40;99.90;;;-141.84;31.93;21531.56;5031510;28;20218;-62
2022/07/15 08:56:45;;;;;;;2.05;0.90;;;21.40;99.90;;;-141.84;32.41;21497.00;5030815;28;20312;-62
2022/07/15 08:59:14;;;;;;;5.18;0.73;;;21.60;99.90;;;-141.84;31.86;21519.34;5031960;28;20200;-62
2022/07/15 09:01:47;;;;;;;0.93;0.52;;;21.60;99.90;;;-141.84;31.93;21472.59;5030917;28;20253;-61
2022/07/15 09:04:17;;;;;;;1.38;0.60;;;21.70;99.90;;;-141.84;32.19;21381.09;5031371;28;20236;-64
2022/07/15 09:06:48;;;;;;;2.17;0.70;;;21.40;99.90;;;-141.84;32.50;21429.91;5030561;28;20250;-64
2022/07/15 09:09:26;;;;;;;4.18;0.70;;;21.40;99.90;;;-141.84;32.69;21415.66;5030854;28;20238;-62
2022/07/15 09:11:58;;;;;;;1.98;0.90;;;21.40;99.90;;;-141.84;32.36;21391.28;5031206;28;20229;-61
2022/07/15 09:14:39;;;;;;;1.80;0.85;;;21.40;99.90;;;-141.84;32.90;21360.78;5031028;28;20213;-62
2022/07/15 09:17:24;;;;;;;3.65;0.60;;;21.30;99.90;;;-141.84;32.50;21370.94;5031502;28;20182;-62
2022/07/15 09:20:07;;;;;;;2.33;0.73;;;21.30;99.90;;;-141.84;32.53;21375.00;5030740;28;20237;-62
2022/07/15 09:22:55;;;;;;;4.20;0.70;;;21.30;99.90;;;-141.84;32.13;21377.03;5030809;28;20238;-63
2022/07/15 09:25:24;;;;;;;2.63;0.65;;;21.30;99.90;;;-141.84;32.24;21486.81;5036470;28;20367;-63
2022/07/15 09:27:53;;;;;;;1.80;0.60;;;21.40;99.90;;;-141.84;31.93;21454.28;5030369;28;20265;-62
2022/07/15 09:36:14;;;;;;;1.85;0.70;;;21.50;99.90;;;-141.84;31.35;21578.31;5030549;28;20300;-58
2022/07/15 09:38:47;;;;;;;1.10;0.55;;;21.90;99.90;;;-141.84;30.33;21700.31;5030672;28;20221;-57
2022/07/15 09:41:26;;;;;;;1.63;0.70;;;22.20;99.90;;;-141.84;30.91;21649.50;5031029;28;20182;-57
2022/07/15 09:43:59;;;;;;;5.80;1.00;;;22.30;99.90;;;-141.84;30.31;21655.59;5030962;28;20206;-58
2022/07/15 09:46:32;;;;;;;3.63;0.90;;;22.50;99.90;;;-141.84;31.18;21602.72;5030308;28;20256;-61
2022/07/15 09:49:01;;;;;;;3.05;0.85;;;22.40;99.90;;;-141.84;30.87;21619.00;5030445;28;20272;-58
2022/07/15 09:54:50;;;;;;;2.45;0.88;;;22.30;99.90;;;-141.84;31.35;21523.44;5026284;28;20308;-57
2022/07/15 09:57:21;;;;;;;3.83;0.80;;;22.00;99.90;;;-141.84;31.30;21537.66;5030334;28;20785;-58
2022/07/15 09:59:51;;;;;;;2.40;1.10;;;22.00;99.90;;;-141.84;31.58;21549.84;5030561;28;20240;-56
2022/07/15 10:02:19;;;;;;;1.35;0.70;;;22.00;99.90;;;-141.84;32.11;21570.19;5030761;28;20264;-56
2022/07/15 10:04:49;;;;;;;1.77;0.80;;;22.00;99.90;;;-141.84;31.95;21582.38;5030496;28;20300;-57
2022/07/15 10:07:24;;;;;;;2.28;0.70;;;22.20;99.90;;;-141.84;31.77;21558.00;5030259;28;20229;-59
2022/07/15 10:09:56;;;;;;;2.28;0.85;;;22.20;99.90;;;-141.84;32.33;21635.25;5030095;28;20256;-57
2022/07/15 10:12:55;;;;;;;3.47;0.80;;;22.50;99.90;;;-141.84;31.16;21647.47;5030029;28;20237;-57
2022/07/15 10:15:43;;;;;;;1.70;0.70;;;22.50;99.90;;;-141.84;31.80;21604.75;5030171;28;20221;-58
2022/07/15 10:18:34;;;;;;;2.20;0.70;;;22.40;99.90;;;-141.84;30.45;21708.47;5030115;28;20226;-56
2022/07/15 10:21:22;;;;;;;3.38;0.80;;;22.60;99.90;;;-141.84;31.54;21675.94;5029853;28;20229;-56
2022/07/15 10:24:38;;;;;;;1.27;0.73;;;22.60;99.90;;;-141.84;30.69;21669.81;5030202;28;20648;-58
2022/07/15 10:27:27;;;;;;;2.10;0.80;;;22.80;99.90;;;-141.84;30.69;21663.72;5030185;28;20222;-57
2022/07/15 10:29:57;;;;;;;3.40;0.70;;;22.50;99.90;;;-141.84;31.52;21545.78;5030023;28;20316;-58
2022/07/15 10:32:25;;;;;;;2.20;0.52;;;22.20;99.90;;;-141.84;32.10;21598.66;5030254;28;20202;-57